Time;durP1;ratioP1;P1;durP2;ratioP2;P2;SDS_P1;SDS_P2;PMS_P1;PMS_P2;Temp;Humidity;BMP_temperature;BMP_pressure;BME280_temperature;BME280_humidity;BME280_pressure;Samples;Min_cycle;Max_cycle;Signal;HPM_P1;HPM_P2
2021/11/24 00:01:46;;;;;;;25.03;14.63;;;;;;;7.09;95.01;102692.44;5032204;28;20197;-79
2021/11/24 00:04:11;;;;;;;24.90;14.17;;;;;;;7.12;95.09;102685.00;5030741;28;20214;-76
2021/11/24 00:06:37;;;;;;;27.00;14.73;;;;;;;7.13;95.28;102684.19;5030906;28;20663;-78
2021/11/24 00:09:02;;;;;;;25.90;14.37;;;;;;;7.16;94.84;102678.41;5026734;28;20187;-78
2021/11/24 00:11:28;;;;;;;25.53;14.17;;;;;;;7.14;95.23;102683.41;5011015;28;20668;-76
2021/11/24 00:13:55;;;;;;;26.60;14.33;;;;;;;7.14;94.70;102674.91;5010921;28;20183;-77
2021/11/24 00:16:22;;;;;;;26.17;15.03;;;;;;;7.14;94.70;102678.31;4994499;28;20868;-78
2021/11/24 00:18:47;;;;;;;24.57;13.97;;;;;;;7.13;95.21;102680.75;5019715;28;20190;-77
2021/11/24 00:21:13;;;;;;;27.83;14.37;;;;;;;7.09;94.36;102672.06;5027136;28;20699;-76
2021/11/24 00:23:39;;;;;;;25.50;15.13;;;;;;;7.07;94.61;102673.63;5012032;28;20286;-76
2021/11/24 00:26:04;;;;;;;25.00;14.37;;;;;;;7.06;94.28;102676.09;4994525;28;20179;-76
2021/11/24 00:28:30;;;;;;;24.37;14.47;;;;;;;7.05;94.67;102671.78;5000853;28;20191;-77
2021/11/24 00:30:56;;;;;;;24.60;14.17;;;;;;;7.08;94.64;102671.94;5030524;28;20214;-76
2021/11/24 00:33:21;;;;;;;26.43;14.60;;;;;;;7.07;94.08;102672.75;5030733;28;20181;-76
2021/11/24 00:35:47;;;;;;;23.90;14.03;;;;;;;7.07;94.91;102676.19;5030585;28;20686;-77
2021/11/24 00:38:13;;;;;;;25.83;15.37;;;;;;;7.07;95.04;102676.19;5013185;28;20189;-77
2021/11/24 00:40:38;;;;;;;28.90;15.53;;;;;;;7.07;94.60;102676.19;5030028;28;20216;-78
2021/11/24 00:43:04;;;;;;;26.33;15.10;;;;;;;7.09;94.22;102669.50;5029114;28;20210;-77
2021/11/24 00:45:30;;;;;;;26.53;14.20;;;;;;;7.08;94.15;102677.03;5030226;28;20245;-75
2021/11/24 00:47:56;;;;;;;25.10;13.83;;;;;;;7.09;94.41;102672.06;5029578;28;20198;-75
2021/11/24 00:50:21;;;;;;;26.70;14.23;;;;;;;7.09;93.94;102666.09;5031337;28;20225;-75
2021/11/24 00:52:51;;;;;;;23.20;14.13;;;;;;;7.10;94.25;102668.72;5030056;28;20174;-78
2021/11/24 00:55:16;;;;;;;26.93;15.70;;;;;;;7.11;94.23;102659.41;5029913;28;20197;-77
2021/11/24 00:57:42;;;;;;;26.60;15.13;;;;;;;7.10;94.03;102665.31;5030853;28;20560;-75
2021/11/24 01:00:08;;;;;;;26.90;15.37;;;;;;;7.11;94.75;102660.31;5013186;28;20202;-77
2021/11/24 01:02:34;;;;;;;30.37;16.10;;;;;;;7.12;94.49;102656.06;5013237;28;20209;-76
2021/11/24 01:04:59;;;;;;;27.83;16.13;;;;;;;7.11;94.87;102661.97;5029730;28;20244;-77
2021/11/24 01:07:25;;;;;;;24.40;15.17;;;;;;;7.14;94.37;102655.38;5029382;28;20244;-76
2021/11/24 01:09:51;;;;;;;25.80;15.47;;;;;;;7.15;95.04;102654.63;5029338;28;20976;-77
2021/11/24 01:12:21;;;;;;;22.60;14.33;;;;;;;7.15;94.47;102652.09;5025645;28;20242;-78
2021/11/24 01:14:47;;;;;;;25.27;16.23;;;;;;;7.24;94.88;102652.63;5011154;28;20187;-77
2021/11/24 01:17:12;;;;;;;24.37;15.43;;;;;;;7.23;95.31;102648.31;5018542;28;20251;-77
2021/11/24 01:19:38;;;;;;;24.83;15.07;;;;;;;7.21;94.92;102649.91;5030684;28;20217;-75
2021/11/24 01:22:03;;;;;;;27.50;14.93;;;;;;;7.23;94.80;102648.31;5029394;28;20289;-79
2021/11/24 01:24:29;;;;;;;23.90;14.87;;;;;;;7.23;94.56;102642.34;5029510;28;20210;-78
2021/11/24 01:26:54;;;;;;;25.43;15.93;;;;;;;7.22;95.03;102649.09;5030363;28;20170;-77
2021/11/24 01:29:20;;;;;;;25.33;15.40;;;;;;;7.25;94.96;102653.50;5030195;28;20206;-77
2021/11/24 01:31:45;;;;;;;25.23;16.23;;;;;;;7.27;94.58;102650.28;5030524;28;20580;-78
2021/11/24 01:34:11;;;;;;;20.70;15.33;;;;;;;7.24;94.68;102650.06;5030651;28;20178;-75
2021/11/24 01:36:36;;;;;;;26.97;15.23;;;;;;;7.26;95.24;102651.06;5028902;28;20675;-75
2021/11/24 01:39:03;;;;;;;21.37;14.57;;;;;;;7.25;95.07;102645.88;5028808;28;20195;-78
2021/11/24 01:41:28;;;;;;;24.20;15.50;;;;;;;7.26;94.42;102642.53;5030426;28;20188;-77
2021/11/24 01:43:54;;;;;;;25.30;15.37;;;;;;;7.28;94.43;102648.63;5030426;28;20210;-76
2021/11/24 01:46:24;;;;;;;25.63;15.53;;;;;;;7.29;94.65;102643.63;5030062;28;20218;-78
2021/11/24 01:48:49;;;;;;;23.00;16.37;;;;;;;7.29;95.03;102638.53;5030217;28;20523;-75
2021/11/24 01:51:15;;;;;;;19.50;14.53;;;;;;;7.29;94.56;102638.53;5029995;28;20205;-75
2021/11/24 01:53:40;;;;;;;23.57;15.30;;;;;;;7.27;94.33;102634.13;5030105;28;20186;-77
2021/11/24 01:56:06;;;;;;;24.30;15.80;;;;;;;7.27;95.41;102637.53;5025400;28;20604;-77
2021/11/24 01:58:34;;;;;;;24.67;15.87;;;;;;;7.28;94.71;102633.31;4992726;28;20226;-75
2021/11/24 02:00:59;;;;;;;25.63;16.43;;;;;;;7.26;95.49;102625.59;5010340;28;20280;-76
2021/11/24 02:03:26;;;;;;;26.57;16.03;;;;;;;7.27;95.32;102634.13;5010311;28;20687;-77
2021/11/24 02:05:52;;;;;;;23.43;15.97;;;;;;;7.23;95.71;102633.03;5020417;28;20594;-77
2021/11/24 02:08:17;;;;;;;27.07;17.73;;;;;;;7.22;95.44;102628.72;5028616;28;20189;-77
2021/11/24 02:10:43;;;;;;;24.00;17.57;;;;;;;7.22;95.20;102626.19;5029104;28;20721;-77
2021/11/24 02:13:09;;;;;;;27.83;16.83;;;;;;;7.22;95.85;102620.19;5029141;28;20175;-77
2021/11/24 02:15:34;;;;;;;23.50;18.37;;;;;;;7.17;95.08;102619.03;5026827;28;20659;-76
2021/11/24 02:18:03;;;;;;;30.50;19.00;;;;;;;7.16;95.43;102614.72;5028145;28;20597;-77
2021/11/24 02:20:43;;;;;;;32.00;19.63;;;;;;;7.14;96.26;102598.50;4991317;23;20232;-75
2021/11/24 02:23:11;;;;;;;28.93;19.37;;;;;;;7.12;95.95;102598.41;4969078;28;20215;-75
2021/11/24 02:25:37;;;;;;;29.00;18.50;;;;;;;7.03;95.82;102592.75;4969175;28;20203;-74
2021/11/24 02:28:03;;;;;;;27.57;18.93;;;;;;;7.01;95.31;102596.84;4970380;28;20206;-75
2021/11/24 02:30:29;;;;;;;34.47;19.70;;;;;;;7.05;95.21;102585.19;4969694;28;20204;-73
2021/11/24 02:32:55;;;;;;;29.53;19.37;;;;;;;7.04;95.78;102584.31;4969830;28;20243;-75
2021/11/24 02:35:21;;;;;;;31.50;19.20;;;;;;;7.05;95.45;102580.97;4969257;28;20216;-75
2021/11/24 02:37:46;;;;;;;33.73;19.27;;;;;;;7.07;95.18;102584.50;4969372;28;20184;-74
2021/11/24 02:40:12;;;;;;;26.17;18.40;;;;;;;7.08;95.93;102580.28;4970638;28;20200;-75
2021/11/24 02:42:39;;;;;;;28.10;18.33;;;;;;;7.05;95.31;102582.66;4970748;28;20701;-75
2021/11/24 02:45:05;;;;;;;25.87;17.40;;;;;;;6.98;95.95;102581.38;4970623;28;20185;-74
2021/11/24 02:47:31;;;;;;;26.27;16.63;;;;;;;6.96;95.02;102582.94;4970855;28;20197;-73
2021/11/24 02:50:00;;;;;;;27.20;18.60;;;;;;;6.94;95.44;102587.06;4969237;28;20283;-73
2021/11/24 02:52:25;;;;;;;26.17;18.17;;;;;;;6.98;95.43;102583.03;4953014;28;20259;-74
2021/11/24 02:54:54;;;;;;;29.70;18.37;;;;;;;6.99;95.42;102580.59;4970783;28;20654;-75
2021/11/24 02:57:29;;;;;;;27.20;19.00;;;;;;;7.02;94.96;102579.91;4969641;28;20195;-74
2021/11/24 02:59:55;;;;;;;31.53;18.13;;;;;;;7.04;95.44;102580.91;4969056;28;20243;-74
2021/11/24 03:02:20;;;;;;;26.73;18.03;;;;;;;7.04;95.35;102574.13;4970904;28;20224;-72
2021/11/24 03:04:46;;;;;;;26.70;17.67;;;;;;;7.05;95.42;102573.31;4970558;28;20200;-74
2021/11/24 03:07:12;;;;;;;28.20;18.70;;;;;;;7.05;95.03;102577.56;4972472;28;20188;-73
2021/11/24 03:09:37;;;;;;;26.80;17.70;;;;;;;7.05;95.19;102572.47;4972550;28;20216;-74
2021/11/24 03:12:03;;;;;;;27.00;18.30;;;;;;;7.07;95.54;102574.31;4974314;28;20231;-73
2021/11/24 03:14:29;;;;;;;29.10;18.90;;;;;;;7.08;95.40;102572.63;4972889;28;20180;-74
2021/11/24 03:16:57;;;;;;;26.37;17.87;;;;;;;7.10;95.69;102565.97;4973011;28;20255;-74
2021/11/24 03:19:23;;;;;;;24.43;18.57;;;;;;;7.09;95.34;102572.72;4973338;28;20212;-74
2021/11/24 03:21:49;;;;;;;24.10;17.20;;;;;;;7.11;94.88;102566.06;4973958;28;20180;-75
2021/11/24 03:24:14;;;;;;;26.17;18.27;;;;;;;7.10;95.40;102560.88;4974025;28;20260;-74
2021/11/24 03:26:40;;;;;;;26.10;18.43;;;;;;;7.10;95.36;102553.25;4972676;28;20247;-73
2021/11/24 03:29:05;;;;;;;28.57;18.07;;;;;;;7.09;95.69;102552.34;4973618;28;20537;-72
2021/11/24 03:31:31;;;;;;;25.53;17.63;;;;;;;7.09;95.53;102546.41;4972339;28;20189;-74
2021/11/24 03:33:57;;;;;;;25.67;18.90;;;;;;;7.11;95.86;102544.81;4972548;28;20651;-75
2021/11/24 03:36:23;;;;;;;26.73;17.57;;;;;;;7.05;95.45;102545.31;4973982;28;20184;-75
2021/11/24 03:38:48;;;;;;;24.10;17.80;;;;;;;7.06;95.22;102547.09;4972392;28;20188;-74
2021/11/24 03:41:14;;;;;;;28.93;18.90;;;;;;;7.03;96.30;102538.38;4973391;28;20188;-73
2021/11/24 03:43:40;;;;;;;28.00;19.43;;;;;;;7.07;95.72;102533.56;4973629;28;20215;-72
2021/11/24 03:46:05;;;;;;;28.03;17.73;;;;;;;7.09;95.46;102538.75;4972260;28;20283;-73
2021/11/24 03:48:31;;;;;;;28.00;17.77;;;;;;;7.10;95.47;102537.97;4972162;28;20192;-72
2021/11/24 03:50:56;;;;;;;24.43;17.07;;;;;;;7.10;95.47;102532.88;4972301;28;20716;-73
2021/11/24 03:53:22;;;;;;;26.20;17.43;;;;;;;7.13;95.42;102533.03;4972248;28;20726;-74
2021/11/24 03:55:47;;;;;;;25.03;17.27;;;;;;;7.12;95.38;102537.28;4972156;28;20271;-74
2021/11/24 03:58:13;;;;;;;27.67;17.53;;;;;;;7.13;95.22;102539.03;4971981;28;20206;-74
2021/11/24 04:00:39;;;;;;;23.33;16.53;;;;;;;7.15;95.69;102536.56;4972183;28;20226;-74
2021/11/24 04:03:05;;;;;;;29.93;19.57;;;;;;;7.16;95.58;102538.31;4973674;28;20227;-76
2021/11/24 04:05:31;;;;;;;27.17;18.60;;;;;;;7.17;95.90;102540.97;4972534;28;20594;-77
2021/11/24 04:07:59;;;;;;;29.17;18.67;;;;;;;7.17;95.53;102538.41;4972204;28;20188;-73
2021/11/24 04:10:25;;;;;;;24.27;17.33;;;;;;;7.20;95.50;102533.53;4967851;28;20216;-74
2021/11/24 04:12:50;;;;;;;26.23;17.93;;;;;;;7.20;95.56;102533.53;4962921;28;20551;-75
2021/11/24 04:15:18;;;;;;;26.77;18.47;;;;;;;7.19;95.93;102528.31;4954129;28;20192;-74
2021/11/24 04:17:45;;;;;;;22.67;16.57;;;;;;;7.18;95.94;102524.88;4968343;28;20188;-75
2021/11/24 04:20:13;;;;;;;26.13;17.13;;;;;;;7.20;95.70;102528.44;4971635;28;20228;-75
2021/11/24 04:22:39;;;;;;;25.40;18.13;;;;;;;7.21;95.76;102520.00;4973158;28;20251;-76
2021/11/24 04:25:06;;;;;;;28.17;17.87;;;;;;;7.20;96.54;102523.34;4973037;28;20184;-75
2021/11/24 04:27:31;;;;;;;28.07;17.63;;;;;;;7.22;96.17;102526.84;4972918;28;20201;-75
2021/11/24 04:29:57;;;;;;;27.00;17.83;;;;;;;7.21;95.82;102520.00;4954902;28;20250;-75
2021/11/24 04:32:24;;;;;;;25.53;17.57;;;;;;;7.22;96.56;102514.09;4954002;28;20177;-75
2021/11/24 04:34:50;;;;;;;26.77;17.33;;;;;;;7.22;96.81;102524.28;4952412;29;20181;-75
2021/11/24 04:37:15;;;;;;;24.63;17.60;;;;;;;7.24;96.38;102509.09;4952320;29;20199;-75
2021/11/24 04:39:41;;;;;;;22.57;17.07;;;;;;;7.24;96.33;102517.59;4953095;28;20198;-74
2021/11/24 04:42:07;;;;;;;27.60;18.87;;;;;;;7.24;96.04;102512.50;4954447;28;20585;-75
2021/11/24 04:44:32;;;;;;;26.70;18.97;;;;;;;7.23;96.69;102512.44;4972537;28;20215;-73
2021/11/24 04:46:58;;;;;;;31.77;19.77;;;;;;;7.21;96.59;102512.34;4955002;28;20181;-75
2021/11/24 04:49:23;;;;;;;30.37;20.33;;;;;;;7.22;96.32;102498.81;4972211;28;20208;-75
2021/11/24 04:51:49;;;;;;;27.83;19.17;;;;;;;7.25;96.96;102506.66;4971224;28;20196;-75
2021/11/24 04:54:15;;;;;;;28.30;18.80;;;;;;;7.24;96.72;102504.00;4954959;28;20192;-76
2021/11/24 04:56:40;;;;;;;28.83;19.87;;;;;;;7.26;96.38;102504.97;4972303;28;20191;-72
2021/11/24 04:59:06;;;;;;;25.60;18.30;;;;;;;7.27;97.14;102496.56;4970785;28;20299;-73
2021/11/24 05:01:32;;;;;;;24.30;17.90;;;;;;;7.26;96.45;102500.75;4970949;28;20196;-72
2021/11/24 05:03:57;;;;;;;27.90;18.50;;;;;;;7.26;96.95;102492.22;4970840;28;20669;-77
2021/11/24 05:06:23;;;;;;;25.43;17.20;;;;;;;7.28;95.78;102495.75;4954801;28;20590;-75
2021/11/24 05:08:49;;;;;;;27.57;18.40;;;;;;;7.27;96.34;102494.00;4970678;28;20188;-75
2021/11/24 05:11:17;;;;;;;28.70;18.63;;;;;;;7.25;96.32;102498.13;4970927;28;20742;-74
2021/11/24 05:13:57;;;;;;;24.83;17.97;;;;;;;7.28;96.11;102500.84;4972277;28;20180;-75
2021/11/24 05:16:27;;;;;;;24.70;17.70;;;;;;;7.26;96.70;102498.22;4970825;28;20657;-73
2021/11/24 05:18:53;;;;;;;25.17;18.00;;;;;;;7.29;96.37;102494.97;4971615;28;20188;-74
2021/11/24 05:21:38;;;;;;;25.77;17.47;;;;;;;7.29;96.08;102498.41;4971427;28;20191;-75
2021/11/24 05:24:04;;;;;;;25.13;17.80;;;;;;;7.28;96.95;102499.16;4970121;28;20366;-75
2021/11/24 05:26:31;;;;;;;20.37;15.90;;;;;;;7.31;96.09;102503.56;4971065;28;20184;-75
2021/11/24 05:28:57;;;;;;;24.70;17.37;;;;;;;7.29;96.13;102505.16;4968943;28;20672;-75
2021/11/24 05:31:23;;;;;;;22.50;17.20;;;;;;;7.31;96.12;102501.00;4971053;28;20180;-75
2021/11/24 05:33:50;;;;;;;22.40;17.20;;;;;;;7.30;95.62;102502.69;4969690;28;20196;-76
2021/11/24 05:36:16;;;;;;;20.27;16.27;;;;;;;7.32;95.78;102500.25;4969754;28;20264;-74
2021/11/24 05:38:42;;;;;;;23.63;17.13;;;;;;;7.29;96.55;102495.84;4969138;28;20193;-73
2021/11/24 05:41:08;;;;;;;22.13;17.23;;;;;;;7.29;96.60;102495.84;4970696;28;20215;-75
2021/11/24 05:43:34;;;;;;;19.47;15.10;;;;;;;7.30;95.96;102500.16;4970661;28;20227;-75
2021/11/24 05:46:12;;;;;;;22.80;16.93;;;;;;;7.31;95.43;102493.38;4969564;28;20216;-75
2021/11/24 05:48:38;;;;;;;22.43;17.27;;;;;;;7.28;95.13;102498.31;4970555;28;20640;-75
2021/11/24 05:51:04;;;;;;;20.90;16.10;;;;;;;7.27;95.31;102494.00;4970615;28;20473;-75
2021/11/24 05:53:30;;;;;;;23.17;16.47;;;;;;;7.29;95.85;102493.31;4970448;28;20646;-72
2021/11/24 05:55:55;;;;;;;20.90;16.23;;;;;;;7.28;96.18;102495.75;4969312;28;20215;-75
2021/11/24 05:58:21;;;;;;;23.57;15.63;;;;;;;7.27;96.40;102494.00;4953219;28;20184;-75
2021/11/24 06:00:47;;;;;;;21.90;16.33;;;;;;;7.27;95.37;102489.78;4953174;28;20214;-75
2021/11/24 06:03:13;;;;;;;22.20;15.43;;;;;;;7.27;96.10;102486.38;4985564;28;20598;-75
2021/11/24 06:05:38;;;;;;;23.10;16.20;;;;;;;7.28;96.23;102486.44;4971017;28;20188;-76
2021/11/24 06:08:04;;;;;;;19.63;14.77;;;;;;;7.25;95.22;102478.63;4970140;28;20195;-75
2021/11/24 06:10:31;;;;;;;22.67;15.30;;;;;;;7.24;96.29;102471.75;4985352;28;20616;-75
2021/11/24 06:12:57;;;;;;;21.67;15.70;;;;;;;7.25;95.72;102480.28;4952999;28;20196;-73
2021/11/24 06:15:22;;;;;;;19.77;14.57;;;;;;;7.24;96.09;102483.63;4970363;28;20184;-74
2021/11/24 06:17:48;;;;;;;22.13;15.77;;;;;;;7.24;95.84;102476.84;4968902;28;20200;-74
2021/11/24 06:20:15;;;;;;;23.13;16.00;;;;;;;7.25;95.50;102485.38;4932153;28;1118359;-75
2021/11/24 06:22:42;;;;;;;23.07;16.10;;;;;;;7.22;96.37;102480.97;4969730;28;20235;-73
2021/11/24 06:25:09;;;;;;;19.77;15.70;;;;;;;7.23;95.40;102479.31;4971034;28;20197;-73
2021/11/24 06:27:35;;;;;;;21.17;15.47;;;;;;;7.20;95.56;102482.56;4969601;28;20200;-75
2021/11/24 06:30:01;;;;;;;21.97;15.53;;;;;;;7.20;95.20;102477.47;4970816;28;20342;-73
2021/11/24 06:32:27;;;;;;;21.30;15.90;;;;;;;7.20;95.86;102481.69;4971105;28;20196;-76
2021/11/24 06:34:52;;;;;;;24.23;16.53;;;;;;;7.22;95.34;102480.97;4971121;28;20172;-75
2021/11/24 06:37:18;;;;;;;23.50;16.27;;;;;;;7.25;95.28;102481.19;4969948;28;20335;-74
2021/11/24 06:39:43;;;;;;;24.53;17.33;;;;;;;7.23;95.63;102472.53;4969574;28;20216;-74
2021/11/24 06:42:09;;;;;;;21.93;15.83;;;;;;;7.24;95.60;102475.97;4973926;28;20258;-75
2021/11/24 06:44:35;;;;;;;21.37;16.20;;;;;;;7.23;95.88;102479.31;4974802;28;20283;-75
2021/11/24 06:47:00;;;;;;;24.67;17.47;;;;;;;7.22;95.76;102478.44;4957472;28;20427;-74
2021/11/24 06:49:25;;;;;;;22.40;17.10;;;;;;;7.23;95.90;102480.19;4973190;28;20366;-73
2021/11/24 06:51:51;;;;;;;24.10;17.50;;;;;;;7.26;95.41;102476.94;4974774;28;20180;-73
2021/11/24 06:54:17;;;;;;;22.57;16.40;;;;;;;7.22;96.19;102477.53;4974666;28;20228;-74
2021/11/24 06:56:45;;;;;;;23.20;17.00;;;;;;;7.25;96.05;102486.28;4974634;28;20251;-75
2021/11/24 06:59:11;;;;;;;24.30;17.00;;;;;;;7.22;95.55;102485.19;4974244;28;20232;-74
2021/11/24 07:01:36;;;;;;;22.87;16.33;;;;;;;7.23;95.36;102480.19;4973272;28;20180;-75
2021/11/24 07:04:02;;;;;;;23.90;17.77;;;;;;;7.25;95.15;102481.19;4957215;28;20262;-75
2021/11/24 07:06:28;;;;;;;27.10;19.10;;;;;;;7.23;95.47;102486.97;4973212;28;20181;-75
2021/11/24 07:08:53;;;;;;;26.60;17.60;;;;;;;7.22;95.58;102488.63;4972930;28;20733;-76
2021/11/24 07:11:19;;;;;;;26.73;18.83;;;;;;;7.23;95.97;102485.28;4973017;28;20650;-75
2021/11/24 07:13:45;;;;;;;26.20;18.60;;;;;;;7.21;95.79;102484.31;4974265;28;20186;-74
2021/11/24 07:16:10;;;;;;;29.87;19.00;;;;;;;7.21;95.66;102479.22;4974274;28;20200;-74
2021/11/24 07:18:36;;;;;;;27.07;18.20;;;;;;;7.19;96.22;102479.94;4956752;28;20220;-73
2021/11/24 07:21:03;;;;;;;26.63;18.67;;;;;;;7.20;95.85;102482.56;4972587;28;20701;-75
2021/11/24 07:23:28;;;;;;;28.80;19.60;;;;;;;7.18;95.58;102476.50;4972752;28;20224;-75
2021/11/24 07:25:54;;;;;;;27.57;19.00;;;;;;;7.21;95.17;102480.88;4972978;28;20203;-75
2021/11/24 07:28:19;;;;;;;29.10;18.23;;;;;;;7.18;95.80;102480.72;4972615;28;20297;-75
2021/11/24 07:30:45;;;;;;;36.27;20.67;;;;;;;7.21;96.17;102483.44;4973936;28;20205;-74
2021/11/24 07:33:10;;;;;;;29.83;20.30;;;;;;;7.18;95.62;102485.81;4972214;28;20263;-73
2021/11/24 07:35:36;;;;;;;36.90;22.33;;;;;;;7.17;96.15;102484.94;4973684;28;20195;-75
2021/11/24 07:38:01;;;;;;;37.63;21.57;;;;;;;7.17;95.85;102476.41;4973348;28;20188;-75
2021/11/24 07:40:27;;;;;;;33.67;22.63;;;;;;;7.15;95.89;102471.25;4956414;28;20200;-74
2021/11/24 07:42:53;;;;;;;35.77;21.37;;;;;;;7.14;96.39;102479.63;4972752;28;20184;-75
2021/11/24 07:45:19;;;;;;;37.30;22.67;;;;;;;7.15;95.67;102481.44;4972467;28;20192;-73
2021/11/24 07:47:45;;;;;;;37.17;22.93;;;;;;;7.14;96.32;102482.19;4972688;28;20239;-74
2021/11/24 07:50:10;;;;;;;34.63;22.20;;;;;;;7.15;95.56;102470.34;4972298;28;20259;-73
2021/11/24 07:52:36;;;;;;;40.23;23.17;;;;;;;7.16;96.58;102469.56;4988770;28;20196;-72
2021/11/24 07:55:03;;;;;;;38.47;23.37;;;;;;;7.14;96.48;102469.44;4972609;28;20181;-73
2021/11/24 07:57:28;;;;;;;38.67;23.07;;;;;;;7.17;95.68;102459.47;4956246;28;20248;-73
2021/11/24 07:59:54;;;;;;;39.83;23.10;;;;;;;7.23;95.56;102458.94;4955735;28;20205;-74
2021/11/24 08:02:20;;;;;;;38.10;22.53;;;;;;;7.22;95.21;102459.72;4954385;28;20178;-75
2021/11/24 08:04:45;;;;;;;38.17;22.97;;;;;;;7.21;95.50;102460.50;4954088;28;20224;-74
2021/11/24 08:07:11;;;;;;;35.23;21.40;;;;;;;7.21;95.13;102469.03;4953053;29;20189;-75
2021/11/24 08:09:36;;;;;;;33.07;20.60;;;;;;;7.22;95.59;102472.44;4953733;28;20255;-75
2021/11/24 08:12:02;;;;;;;35.97;22.00;;;;;;;7.23;95.65;102464.91;4952651;28;20185;-74
2021/11/24 08:14:28;;;;;;;33.67;21.47;;;;;;;7.24;95.60;102463.25;4953936;28;20185;-74
2021/11/24 08:16:55;;;;;;;36.13;19.83;;;;;;;7.23;95.10;102453.84;4952530;28;20231;-75
2021/11/24 08:19:21;;;;;;;33.20;20.10;;;;;;;7.27;95.41;102459.19;4952025;28;20225;-75
2021/11/24 08:21:46;;;;;;;30.33;19.63;;;;;;;7.31;94.59;102461.13;4953752;28;20197;-73
2021/11/24 08:24:12;;;;;;;30.40;19.33;;;;;;;7.34;94.92;102456.22;4953652;28;20209;-74
2021/11/24 08:26:40;;;;;;;33.37;20.47;;;;;;;7.34;95.51;102447.69;4954006;28;20185;-73
2021/11/24 08:29:09;;;;;;;31.27;19.40;;;;;;;7.37;94.91;102438.56;4936613;29;20212;-73
2021/11/24 08:31:39;;;;;;;29.50;18.73;;;;;;;7.40;94.81;102445.50;4954028;28;20607;-75
2021/11/24 08:34:08;;;;;;;31.03;18.80;;;;;;;7.41;94.49;102448.13;4936248;29;20189;-74
2021/11/24 08:36:35;;;;;;;27.60;17.23;;;;;;;7.44;94.89;102443.22;4953535;28;20687;-75
2021/11/24 08:39:01;;;;;;;28.33;17.47;;;;;;;7.40;94.01;102442.94;4953169;28;20198;-75
2021/11/24 08:41:26;;;;;;;29.63;17.63;;;;;;;7.40;94.31;102438.75;4923190;28;20227;-74
2021/11/24 08:43:52;;;;;;;27.80;17.03;;;;;;;7.41;93.53;102443.03;4955469;28;20243;-75
2021/11/24 08:46:17;;;;;;;27.00;16.77;;;;;;;7.44;94.92;102448.31;4971868;28;20211;-74
2021/11/24 08:48:43;;;;;;;27.13;16.40;;;;;;;7.40;94.46;102448.94;4951167;28;20189;-74
2021/11/24 08:51:09;;;;;;;24.70;15.77;;;;;;;7.44;94.96;102440.69;4971554;28;20573;-73
2021/11/24 08:53:34;;;;;;;26.27;15.90;;;;;;;7.50;94.32;102453.75;4970754;28;20259;-75
2021/11/24 08:56:00;;;;;;;26.87;15.97;;;;;;;7.50;94.63;102446.13;4971896;28;20191;-74
2021/11/24 08:58:26;;;;;;;24.57;15.57;;;;;;;7.49;94.18;102449.47;4969657;28;20784;-74
2021/11/24 09:00:51;;;;;;;27.53;16.40;;;;;;;7.49;94.43;102448.56;4971141;28;20196;-73
2021/11/24 09:03:17;;;;;;;24.60;16.27;;;;;;;7.51;93.80;102447.88;4970835;28;20556;-71
2021/11/24 09:05:42;;;;;;;27.67;16.03;;;;;;;7.56;94.03;102448.16;4971078;28;20183;-71
2021/11/24 09:08:08;;;;;;;24.30;15.47;;;;;;;7.57;94.24;102448.25;4971662;28;20216;-72
2021/11/24 09:10:38;;;;;;;26.13;15.93;;;;;;;7.54;93.89;102445.50;4970550;28;20628;-72
2021/11/24 09:13:04;;;;;;;26.63;15.67;;;;;;;7.56;94.32;102443.91;4969522;28;20195;-72
2021/11/24 09:15:30;;;;;;;26.50;16.33;;;;;;;7.55;93.48;102438.75;4970213;28;20192;-75
2021/11/24 09:17:55;;;;;;;28.97;16.97;;;;;;;7.58;93.29;102438.91;4968689;28;20204;-75
2021/11/24 09:20:21;;;;;;;30.60;17.60;;;;;;;7.62;93.87;102439.19;4964128;28;20270;-75
2021/11/24 09:22:48;;;;;;;28.33;17.70;;;;;;;7.62;93.17;102440.84;4969870;28;20185;-75
2021/11/24 09:25:18;;;;;;;29.97;17.57;;;;;;;7.65;93.31;102436.78;4950528;29;20189;-74
2021/11/24 09:28:00;;;;;;;27.53;17.13;;;;;;;7.65;92.58;102441.88;4950571;29;20237;-74
2021/11/24 09:30:27;;;;;;;28.60;18.03;;;;;;;7.76;92.88;102437.41;4950463;29;20209;-75
2021/11/24 09:32:53;;;;;;;30.53;18.23;;;;;;;7.80;93.09;102434.22;4966679;28;20216;-76
2021/11/24 09:35:19;;;;;;;32.33;18.27;;;;;;;7.80;92.00;102440.22;4966490;28;20189;-74
2021/11/24 09:37:45;;;;;;;29.90;18.07;;;;;;;7.83;92.88;102442.06;4966573;28;20408;-75
2021/11/24 09:40:11;;;;;;;31.53;17.90;;;;;;;7.71;92.10;102433.72;4970774;28;20223;-75
2021/11/24 09:42:41;;;;;;;30.80;18.27;;;;;;;7.76;92.03;102427.19;4957182;28;20710;-75
2021/11/24 09:45:07;;;;;;;30.97;18.60;;;;;;;7.81;91.85;102430.88;4971172;28;20216;-75
2021/11/24 09:47:34;;;;;;;31.67;18.80;;;;;;;7.79;92.05;102420.59;4970941;28;20181;-75
2021/11/24 09:50:04;;;;;;;32.47;20.10;;;;;;;7.81;91.31;102421.56;4970673;28;20668;-75
2021/11/24 09:52:30;;;;;;;33.83;19.90;;;;;;;7.71;91.47;102423.50;4970587;28;20211;-75
2021/11/24 09:54:56;;;;;;;34.17;20.20;;;;;;;7.72;91.93;102421.06;4969640;28;20188;-74
2021/11/24 09:57:24;;;;;;;36.77;20.33;;;;;;;7.73;92.35;102410.06;4970506;28;20561;-75
2021/11/24 09:59:51;;;;;;;33.70;18.77;;;;;;;7.75;91.76;102405.94;4984765;28;20699;-75
2021/11/24 10:02:16;;;;;;;30.37;18.40;;;;;;;7.86;91.88;102406.50;4972548;28;20594;-73
2021/11/24 10:04:44;;;;;;;32.97;19.13;;;;;;;7.74;91.52;102398.19;4988992;28;20226;-75
2021/11/24 10:07:11;;;;;;;32.17;19.17;;;;;;;7.75;92.05;102400.84;4990261;28;20200;-74
2021/11/24 10:09:37;;;;;;;35.00;20.67;;;;;;;7.81;92.02;102397.72;4989559;28;20763;-74
2021/11/24 10:12:03;;;;;;;30.80;18.37;;;;;;;7.79;91.54;102395.09;4988700;28;20183;-74
2021/11/24 10:14:29;;;;;;;34.23;18.80;;;;;;;7.80;90.97;102389.22;4972967;28;20215;-75
2021/11/24 10:17:15;;;;;;;33.27;18.43;;;;;;;7.82;91.33;102385.06;4969051;28;20283;-74
2021/11/24 10:19:57;;;;;;;28.27;17.67;;;;;;;7.88;90.64;102380.28;4952555;28;20359;-74
2021/11/24 10:22:23;;;;;;;34.03;19.23;;;;;;;7.97;91.74;102374.84;4970389;28;20184;-74
2021/11/24 10:25:01;;;;;;;31.47;18.27;;;;;;;7.97;90.70;102368.03;4970324;28;20212;-75
2021/11/24 10:27:56;;;;;;;27.37;16.73;;;;;;;8.04;90.37;102370.16;4969114;28;20736;-74
2021/11/24 10:30:27;;;;;;;25.90;15.70;;;;;;;8.02;90.15;102363.22;4956580;28;20247;-74
2021/11/24 10:32:53;;;;;;;28.20;16.50;;;;;;;7.95;89.98;102361.09;4970758;28;20508;-74
2021/11/24 10:35:27;;;;;;;26.97;16.40;;;;;;;7.97;90.08;102360.41;4969200;28;20195;-75
2021/11/24 10:38:16;;;;;;;26.50;14.70;;;;;;;8.07;89.63;102352.44;4968690;28;20212;-74
2021/11/24 10:40:46;;;;;;;28.43;15.13;;;;;;;8.04;88.87;102351.41;4970176;28;20244;-74
2021/11/24 10:43:14;;;;;;;26.50;14.70;;;;;;;8.09;89.40;102348.31;4956475;28;20248;-75
2021/11/24 10:45:54;;;;;;;24.30;14.27;;;;;;;8.17;89.92;102347.06;4952761;28;20191;-74
2021/11/24 10:48:27;;;;;;;24.20;14.23;;;;;;;8.16;89.65;102346.97;4970243;28;20180;-75
2021/11/24 10:50:55;;;;;;;20.90;13.23;;;;;;;8.11;90.11;102338.19;4954734;28;20314;-75
2021/11/24 10:53:21;;;;;;;26.07;15.13;;;;;;;8.23;89.58;102338.84;4967127;28;20227;-75
2021/11/24 10:55:47;;;;;;;22.50;13.67;;;;;;;8.22;89.04;102334.56;4965233;28;20197;-75
2021/11/24 10:58:18;;;;;;;22.00;13.13;;;;;;;8.29;89.22;102334.09;4965948;28;20197;-75
2021/11/24 11:00:53;;;;;;;20.17;13.73;;;;;;;8.25;89.80;102330.47;4950769;28;20654;-74
2021/11/24 11:03:23;;;;;;;21.37;13.40;;;;;;;8.32;89.42;102334.22;4969875;28;20196;-74
2021/11/24 11:05:53;;;;;;;19.17;12.63;;;;;;;8.34;89.15;102333.50;4969103;28;20216;-74
2021/11/24 11:08:20;;;;;;;20.77;13.80;;;;;;;8.44;89.89;102334.88;4952496;28;20187;-74
2021/11/24 11:10:52;;;;;;;21.20;13.67;;;;;;;8.43;89.67;102312.72;4969277;28;20220;-75
2021/11/24 11:13:21;;;;;;;21.17;14.13;;;;;;;8.48;88.96;102314.69;4968416;28;20232;-75
2021/11/24 11:15:51;;;;;;;18.57;12.50;;;;;;;8.46;89.40;102313.75;4969635;28;20250;-75